Time;durP1;ratioP1;P1;durP2;ratioP2;P2;SDS_P1;SDS_P2;PMS_P1;PMS_P2;Temp;Humidity;BMP_temperature;BMP_pressure;BME280_temperature;BME280_humidity;BME280_pressure;Samples;Min_cycle;Max_cycle;Signal;HPM_P1;HPM_P2
2023/04/11 00:01:48;;;;;;;34.55;4.55;;;;;;;;;;4998488;28;93567;-72
2023/04/11 00:04:15;;;;;;;30.23;5.18;;;;;;;;;;4997990;28;93851;-72
2023/04/11 00:06:42;;;;;;;29.63;4.20;;;;;;;;;;4997708;28;92828;-72
2023/04/11 00:09:10;;;;;;;34.78;5.18;;;;;;;;;;5001001;28;94516;-72
2023/04/11 00:11:36;;;;;;;34.30;5.60;;;;;;;;;;4998198;28;96348;-72
2023/04/11 00:14:04;;;;;;;44.08;5.13;;;;;;;;;;5001825;28;93631;-72
2023/04/11 00:16:32;;;;;;;47.85;6.18;;;;;;;;;;4996956;28;94080;-72
2023/04/11 00:18:59;;;;;;;51.10;6.38;;;;;;;;;;4996157;28;92626;-72
2023/04/11 00:21:25;;;;;;;39.22;6.43;;;;;;;;;;4997568;28;94832;-72
2023/04/11 00:23:52;;;;;;;42.08;5.55;;;;;;;;;;4998850;28;93445;-72
2023/04/11 00:26:20;;;;;;;48.55;6.95;;;;;;;;;;5006134;28;92504;-72
2023/04/11 00:28:47;;;;;;;52.33;7.22;;;;;;;;;;5014534;28;93256;-72
2023/04/11 00:31:13;;;;;;;53.85;5.55;;;;;;;;;;5000073;28;94296;-71
2023/04/11 00:33:39;;;;;;;54.45;6.15;;;;;;;;;;5013142;28;92520;-72
2023/04/11 00:36:06;;;;;;;49.03;6.70;;;;;;;;;;4993875;28;93417;-72
2023/04/11 00:38:33;;;;;;;38.55;6.10;;;;;;;;;;5006954;28;91651;-72
2023/04/11 00:41:00;;;;;;;50.20;5.97;;;;;;;;;;4995361;28;92878;-72
2023/04/11 00:43:26;;;;;;;45.78;6.18;;;;;;;;;;5012318;28;93533;-72
2023/04/11 00:45:52;;;;;;;35.33;5.15;;;;;;;;;;4992682;28;95077;-72
2023/04/11 00:48:19;;;;;;;45.55;5.88;;;;;;;;;;5008278;28;96538;-72
2023/04/11 00:50:45;;;;;;;51.42;5.82;;;;;;;;;;5013658;28;93429;-72
2023/04/11 00:53:12;;;;;;;41.28;6.03;;;;;;;;;;5008141;28;92603;-71
2023/04/11 00:55:38;;;;;;;48.92;6.45;;;;;;;;;;5006982;28;93368;-72
2023/04/11 00:58:05;;;;;;;43.00;5.45;;;;;;;;;;5000227;28;92951;-72
2023/04/11 01:00:34;;;;;;;59.15;6.20;;;;;;;;;;4996958;28;93507;-72
2023/04/11 01:03:00;;;;;;;47.00;5.32;;;;;;;;;;5001502;28;92406;-72
2023/04/11 01:05:28;;;;;;;57.22;7.93;;;;;;;;;;5001030;28;92470;-72
2023/04/11 01:07:55;;;;;;;53.28;7.00;;;;;;;;;;5005353;28;93095;-72
2023/04/11 01:10:22;;;;;;;48.20;6.50;;;;;;;;;;4995364;28;95867;-71
2023/04/11 01:12:48;;;;;;;49.35;5.60;;;;;;;;;;4992794;28;92622;-71
2023/04/11 01:15:15;;;;;;;53.83;6.97;;;;;;;;;;4994378;28;93414;-71
2023/04/11 01:17:41;;;;;;;52.10;7.10;;;;;;;;;;5000206;28;93856;-71
2023/04/11 01:20:08;;;;;;;53.45;6.78;;;;;;;;;;5009055;28;93534;-72
2023/04/11 01:22:36;;;;;;;47.20;6.80;;;;;;;;;;4994779;28;93772;-72
2023/04/11 01:25:03;;;;;;;43.80;5.22;;;;;;;;;;5005193;28;93317;-72
2023/04/11 01:27:30;;;;;;;42.72;5.88;;;;;;;;;;5011851;28;92938;-72
2023/04/11 01:29:56;;;;;;;49.33;5.88;;;;;;;;;;5005854;28;93275;-72
2023/04/11 01:32:22;;;;;;;34.85;5.13;;;;;;;;;;5001086;28;92874;-72
2023/04/11 01:34:51;;;;;;;35.13;5.38;;;;;;;;;;5008310;28;95074;-72
2023/04/11 01:37:17;;;;;;;31.30;4.78;;;;;;;;;;4995005;28;93479;-72
2023/04/11 01:39:44;;;;;;;40.30;5.38;;;;;;;;;;5000152;28;93229;-72
2023/04/11 01:42:11;;;;;;;34.58;5.07;;;;;;;;;;5002300;28;93685;-71
2023/04/11 01:44:37;;;;;;;33.67;4.97;;;;;;;;;;4995565;28;92758;-71
2023/04/11 01:47:07;;;;;;;43.72;6.05;;;;;;;;;;5001613;28;93177;-72
2023/04/11 01:49:34;;;;;;;37.10;5.57;;;;;;;;;;4996744;28;93318;-72
2023/04/11 01:52:00;;;;;;;44.85;5.85;;;;;;;;;;4994560;28;92064;-71
2023/04/11 01:54:27;;;;;;;34.58;5.28;;;;;;;;;;5004150;28;92489;-72
2023/04/11 01:56:53;;;;;;;32.47;4.32;;;;;;;;;;5000435;28;93427;-71
2023/04/11 01:59:20;;;;;;;45.33;5.28;;;;;;;;;;4994870;28;95202;-71
2023/04/11 02:01:46;;;;;;;32.53;4.63;;;;;;;;;;4995435;28;93325;-71
2023/04/11 02:04:12;;;;;;;44.58;5.32;;;;;;;;;;5003939;28;92515;-72
2023/04/11 02:06:39;;;;;;;42.05;4.97;;;;;;;;;;4996719;28;93748;-72
2023/04/11 02:09:06;;;;;;;37.33;5.18;;;;;;;;;;4994055;28;93308;-71
2023/04/11 02:11:33;;;;;;;25.58;5.35;;;;;;;;;;4995255;28;92454;-71
2023/04/11 02:14:01;;;;;;;38.83;5.60;;;;;;;;;;4999343;28;93261;-71
2023/04/11 02:16:28;;;;;;;32.28;4.13;;;;;;;;;;4988756;28;92759;-71
2023/04/11 02:18:55;;;;;;;26.15;3.13;;;;;;;;;;4990457;28;92605;-71
2023/04/11 02:21:22;;;;;;;31.50;3.97;;;;;;;;;;5003447;28;94310;-71
2023/04/11 02:23:48;;;;;;;27.38;4.43;;;;;;;;;;4991650;28;94943;-71
2023/04/11 02:26:14;;;;;;;20.35;3.33;;;;;;;;;;4992788;28;95575;-71
2023/04/11 02:28:41;;;;;;;16.30;2.70;;;;;;;;;;4992014;28;93300;-70
2023/04/11 02:31:07;;;;;;;20.90;2.65;;;;;;;;;;5005909;28;92582;-71
2023/04/11 02:33:33;;;;;;;15.23;2.85;;;;;;;;;;5010031;28;92872;-71
2023/04/11 02:36:00;;;;;;;32.03;3.67;;;;;;;;;;5011865;28;94443;-71
2023/04/11 02:38:26;;;;;;;11.25;1.88;;;;;;;;;;4998242;28;93845;-70
2023/04/11 02:40:52;;;;;;;15.75;2.35;;;;;;;;;;5014077;28;93157;-71
2023/04/11 02:43:18;;;;;;;17.00;2.20;;;;;;;;;;5004047;28;93168;-71
2023/04/11 02:45:45;;;;;;;14.90;1.80;;;;;;;;;;4991635;28;93345;-71
2023/04/11 02:48:11;;;;;;;16.25;2.13;;;;;;;;;;4990217;28;96656;-71
2023/04/11 02:50:39;;;;;;;11.80;1.80;;;;;;;;;;4996121;28;92477;-71
2023/04/11 02:53:06;;;;;;;13.20;1.98;;;;;;;;;;5007690;28;93416;-71
2023/04/11 02:55:32;;;;;;;10.80;1.90;;;;;;;;;;5011917;28;93417;-71
2023/04/11 02:57:58;;;;;;;9.93;1.73;;;;;;;;;;5011513;28;92472;-71
2023/04/11 03:00:25;;;;;;;18.88;2.03;;;;;;;;;;5001489;28;93268;-71
2023/04/11 03:02:52;;;;;;;11.65;1.80;;;;;;;;;;5001404;28;93231;-71
2023/04/11 03:05:18;;;;;;;13.93;2.08;;;;;;;;;;4996780;28;91742;-71
2023/04/11 03:07:45;;;;;;;14.95;2.10;;;;;;;;;;4991731;28;94408;-72
2023/04/11 03:10:12;;;;;;;16.02;2.13;;;;;;;;;;5013387;28;92453;-71
2023/04/11 03:12:38;;;;;;;13.68;2.30;;;;;;;;;;5000086;28;95349;-71
2023/04/11 03:15:04;;;;;;;14.07;2.25;;;;;;;;;;5006242;28;94065;-71
2023/04/11 03:17:32;;;;;;;20.98;3.08;;;;;;;;;;4994401;28;93789;-71
2023/04/11 03:19:58;;;;;;;15.15;2.80;;;;;;;;;;5007426;28;94277;-71
2023/04/11 03:22:24;;;;;;;18.30;2.35;;;;;;;;;;5005888;28;94772;-71
2023/04/11 03:24:51;;;;;;;9.60;2.03;;;;;;;;;;5007680;28;92575;-71
2023/04/11 03:27:17;;;;;;;20.33;2.58;;;;;;;;;;5005771;28;93211;-71
2023/04/11 03:29:43;;;;;;;18.35;2.30;;;;;;;;;;4990719;28;91980;-72
2023/04/11 03:32:10;;;;;;;21.00;2.08;;;;;;;;;;4999268;28;94112;-72
2023/04/11 03:34:36;;;;;;;14.75;2.50;;;;;;;;;;4996600;28;93314;-71
2023/04/11 03:37:02;;;;;;;22.02;2.83;;;;;;;;;;4983535;28;95163;-71
2023/04/11 03:39:28;;;;;;;13.35;2.13;;;;;;;;;;5005570;28;95922;-71
2023/04/11 03:41:55;;;;;;;13.35;2.05;;;;;;;;;;4999041;28;94493;-71
2023/04/11 03:44:21;;;;;;;12.07;2.30;;;;;;;;;;5004656;28;92520;-71
2023/04/11 03:46:47;;;;;;;18.40;2.15;;;;;;;;;;5003063;28;93204;-71
2023/04/11 03:49:14;;;;;;;16.85;3.05;;;;;;;;;;4995475;28;92540;-71
2023/04/11 03:51:40;;;;;;;12.30;3.58;;;;;;;;;;4999245;28;93825;-71
2023/04/11 03:54:06;;;;;;;17.48;5.50;;;;;;;;;;5008164;28;92515;-71
2023/04/11 03:56:32;;;;;;;12.68;2.30;;;;;;;;;;5006370;28;93021;-71
2023/04/11 03:58:59;;;;;;;11.45;2.28;;;;;;;;;;4994298;28;93499;-71
2023/04/11 04:01:25;;;;;;;17.17;2.88;;;;;;;;;;4998789;28;96367;-71
2023/04/11 04:03:52;;;;;;;13.63;2.63;;;;;;;;;;5009443;28;92985;-71
2023/04/11 04:06:19;;;;;;;10.00;2.30;;;;;;;;;;5001814;28;93123;-71
2023/04/11 04:08:45;;;;;;;13.00;2.15;;;;;;;;;;5003059;28;92540;-71
2023/04/11 04:11:11;;;;;;;12.52;2.38;;;;;;;;;;4999859;28;93117;-71
2023/04/11 04:13:38;;;;;;;19.85;3.72;;;;;;;;;;5003521;28;93461;-71
2023/04/11 04:16:04;;;;;;;18.65;2.63;;;;;;;;;;4996897;28;92615;-71
2023/04/11 04:18:31;;;;;;;17.40;1.85;;;;;;;;;;4996155;28;92978;-71
2023/04/11 04:20:57;;;;;;;14.65;2.53;;;;;;;;;;4996626;28;93433;-71
2023/04/11 04:23:25;;;;;;;15.60;2.38;;;;;;;;;;4998294;28;92500;-71
2023/04/11 04:25:51;;;;;;;12.27;2.03;;;;;;;;;;5003425;28;96031;-71
2023/04/11 04:28:21;;;;;;;21.10;3.03;;;;;;;;;;4996983;28;93521;-71
2023/04/11 04:30:52;;;;;;;14.55;2.10;;;;;;;;;;5005115;28;92549;-72
2023/04/11 04:33:19;;;;;;;14.95;2.58;;;;;;;;;;4997211;28;93430;-71
2023/04/11 04:35:46;;;;;;;15.82;2.78;;;;;;;;;;4995785;28;92488;-71
2023/04/11 04:38:16;;;;;;;13.85;2.05;;;;;;;;;;4984178;28;93991;-71
2023/04/11 04:40:42;;;;;;;14.32;2.55;;;;;;;;;;5013490;28;93360;-71
2023/04/11 04:43:17;;;;;;;21.27;2.53;;;;;;;;;;5011679;28;93160;-71
2023/04/11 04:45:44;;;;;;;14.95;2.20;;;;;;;;;;4991102;28;92950;-72
2023/04/11 04:48:11;;;;;;;11.60;2.10;;;;;;;;;;4992341;28;93897;-71
2023/04/11 04:50:38;;;;;;;14.52;2.67;;;;;;;;;;5000399;28;95342;-71
2023/04/11 04:53:05;;;;;;;11.35;2.30;;;;;;;;;;4991685;28;95424;-71
2023/04/11 04:55:32;;;;;;;14.30;2.53;;;;;;;;;;4994800;28;92479;-71
2023/04/11 04:57:58;;;;;;;9.23;2.15;;;;;;;;;;5005358;28;93140;-70
2023/04/11 05:00:24;;;;;;;9.00;1.95;;;;;;;;;;4993930;28;93403;-71
2023/04/11 05:02:53;;;;;;;11.55;2.15;;;;;;;;;;4994191;28;93805;-71
2023/04/11 05:05:20;;;;;;;10.63;1.48;;;;;;;;;;4995796;28;94409;-71
2023/04/11 05:07:47;;;;;;;13.52;2.67;;;;;;;;;;4998923;28;92690;-71
2023/04/11 05:10:13;;;;;;;11.93;2.05;;;;;;;;;;5002933;28;92510;-71
2023/04/11 05:12:40;;;;;;;7.25;1.55;;;;;;;;;;4996524;28;93121;-71
2023/04/11 05:15:10;;;;;;;17.08;2.55;;;;;;;;;;4999835;28;95979;-71
2023/04/11 05:17:37;;;;;;;17.75;2.60;;;;;;;;;;5003772;28;95547;-71
2023/04/11 05:20:05;;;;;;;16.17;1.65;;;;;;;;;;4993216;28;93921;-71
2023/04/11 05:22:32;;;;;;;13.30;1.73;;;;;;;;;;4993632;28;92754;-71
2023/04/11 05:24:58;;;;;;;14.50;2.40;;;;;;;;;;5006283;28;93314;-71
2023/04/11 05:27:25;;;;;;;9.88;1.70;;;;;;;;;;5005923;28;93963;-71
2023/04/11 05:29:53;;;;;;;12.15;2.00;;;;;;;;;;4998116;28;92555;-71
2023/04/11 05:32:19;;;;;;;11.70;1.63;;;;;;;;;;4997753;28;93280;-71
2023/04/11 05:34:53;;;;;;;9.52;2.55;;;;;;;;;;5005472;28;93324;-71
2023/04/11 05:37:23;;;;;;;13.02;1.88;;;;;;;;;;5000675;28;92813;-71
2023/04/11 05:39:51;;;;;;;24.33;3.70;;;;;;;;;;5010627;28;99292;-71
2023/04/11 05:42:17;;;;;;;11.30;1.77;;;;;;;;;;5008667;28;92832;-71
2023/04/11 05:44:43;;;;;;;9.15;1.63;;;;;;;;;;4999727;28;93177;-71
2023/04/11 05:47:10;;;;;;;10.57;1.67;;;;;;;;;;4993099;28;93404;-73
2023/04/11 05:49:37;;;;;;;16.15;2.35;;;;;;;;;;4994877;28;92561;-71
2023/04/11 05:52:03;;;;;;;13.57;2.22;;;;;;;;;;5011510;28;93250;-71
2023/04/11 05:54:31;;;;;;;9.23;2.35;;;;;;;;;;4989576;28;93305;-70
2023/04/11 05:56:57;;;;;;;13.95;2.15;;;;;;;;;;5005577;28;91644;-71
2023/04/11 05:59:24;;;;;;;14.43;1.52;;;;;;;;;;4997990;28;94273;-70
2023/04/11 06:01:53;;;;;;;13.63;2.23;;;;;;;;;;4999848;28;92788;-71
2023/04/11 06:04:20;;;;;;;11.43;1.60;;;;;;;;;;5001424;28;96474;-71
2023/04/11 06:06:46;;;;;;;11.20;2.15;;;;;;;;;;5000587;28;94639;-71
2023/04/11 06:09:13;;;;;;;8.25;1.40;;;;;;;;;;4993384;28;92795;-71
2023/04/11 06:11:39;;;;;;;15.57;2.22;;;;;;;;;;4994109;28;94292;-71
2023/04/11 06:14:05;;;;;;;18.75;2.70;;;;;;;;;;4998753;28;94452;-71
2023/04/11 06:16:34;;;;;;;13.32;1.95;;;;;;;;;;4993438;28;94023;-71
2023/04/11 06:19:00;;;;;;;18.45;1.75;;;;;;;;;;4995134;28;93037;-71
2023/04/11 06:21:26;;;;;;;10.57;1.80;;;;;;;;;;5000557;28;91715;-72
2023/04/11 06:23:53;;;;;;;17.40;1.83;;;;;;;;;;4994162;28;92494;-72
2023/04/11 06:26:19;;;;;;;13.77;1.98;;;;;;;;;;4993403;28;93814;-72
2023/04/11 06:28:46;;;;;;;8.38;1.75;;;;;;;;;;4992057;28;94856;-72
2023/04/11 06:31:12;;;;;;;17.70;1.80;;;;;;;;;;4991157;28;95832;-72
2023/04/11 06:33:38;;;;;;;17.33;2.63;;;;;;;;;;4990355;28;92692;-72
2023/04/11 06:36:05;;;;;;;14.65;2.05;;;;;;;;;;4980417;28;92703;-72
2023/04/11 06:38:33;;;;;;;18.23;2.63;;;;;;;;;;4975088;28;95667;-73
2023/04/11 06:41:00;;;;;;;19.67;2.25;;;;;;;;;;4977684;28;93572;-72
2023/04/11 06:43:26;;;;;;;13.23;2.70;;;;;;;;;;4987331;28;92953;-72
2023/04/11 06:45:52;;;;;;;15.55;1.92;;;;;;;;;;4994765;28;92765;-72
2023/04/11 06:48:19;;;;;;;10.25;1.85;;;;;;;;;;4986849;28;92896;-72
2023/04/11 06:50:47;;;;;;;17.13;3.03;;;;;;;;;;4994291;28;93486;-73
2023/04/11 06:53:13;;;;;;;16.27;2.33;;;;;;;;;;4992874;28;95766;-72
2023/04/11 06:55:39;;;;;;;17.55;2.88;;;;;;;;;;4994365;28;92491;-71
2023/04/11 06:58:06;;;;;;;17.58;3.20;;;;;;;;;;4996201;28;93250;-73
2023/04/11 07:00:32;;;;;;;14.02;2.40;;;;;;;;;;4993950;28;94560;-72
2023/04/11 07:02:59;;;;;;;8.55;2.05;;;;;;;;;;5000384;28;94149;-72
2023/04/11 07:05:26;;;;;;;20.15;2.83;;;;;;;;;;5010306;28;93814;-72
2023/04/11 07:07:53;;;;;;;19.73;2.75;;;;;;;;;;5012384;28;92795;-72
2023/04/11 07:10:19;;;;;;;19.77;2.83;;;;;;;;;;5013307;28;93335;-73
2023/04/11 07:12:46;;;;;;;16.20;2.22;;;;;;;;;;5010521;28;93494;-73
2023/04/11 07:15:12;;;;;;;14.30;2.67;;;;;;;;;;5013575;28;92747;-73
2023/04/11 07:17:38;;;;;;;14.27;2.15;;;;;;;;;;4998147;28;94893;-73
2023/04/11 07:20:08;;;;;;;12.32;2.47;;;;;;;;;;4992835;28;93291;-72
2023/04/11 07:22:35;;;;;;;15.27;2.67;;;;;;;;;;4995815;28;92665;-72
2023/04/11 07:25:03;;;;;;;18.52;2.28;;;;;;;;;;4996148;28;93269;-72
2023/04/11 07:27:31;;;;;;;19.15;2.20;;;;;;;;;;4993244;28;92476;-74
2023/04/11 07:29:57;;;;;;;12.65;2.67;;;;;;;;;;4999293;28;93346;-73
2023/04/11 07:32:23;;;;;;;14.35;2.28;;;;;;;;;;5009010;28;95065;-74
2023/04/11 07:34:50;;;;;;;15.80;2.17;;;;;;;;;;5014224;28;91798;-73
2023/04/11 07:37:16;;;;;;;16.90;2.65;;;;;;;;;;5013794;28;93019;-73
2023/04/11 07:39:43;;;;;;;13.35;2.03;;;;;;;;;;5011654;28;94575;-74
2023/04/11 07:42:09;;;;;;;13.55;2.13;;;;;;;;;;5000155;28;94847;-72
2023/04/11 07:44:36;;;;;;;12.65;1.90;;;;;;;;;;4995983;28;96519;-73
2023/04/11 07:47:02;;;;;;;10.82;2.05;;;;;;;;;;4994384;28;92528;-74
2023/04/11 07:49:29;;;;;;;19.33;2.10;;;;;;;;;;5009495;28;93532;-73
2023/04/11 07:51:55;;;;;;;10.63;2.55;;;;;;;;;;5011476;28;93468;-74
2023/04/11 07:54:24;;;;;;;15.90;2.78;;;;;;;;;;5013773;28;93157;-73
2023/04/11 07:56:50;;;;;;;12.27;2.45;;;;;;;;;;5012165;28;93350;-72
2023/04/11 07:59:16;;;;;;;17.08;2.80;;;;;;;;;;4988417;28;92755;-72
2023/04/11 08:01:42;;;;;;;16.50;2.00;;;;;;;;;;5010550;28;92445;-72
2023/04/11 08:04:09;;;;;;;13.48;2.03;;;;;;;;;;5002906;28;93187;-73
2023/04/11 08:06:36;;;;;;;12.05;2.20;;;;;;;;;;5013591;28;94831;-72
2023/04/11 08:09:02;;;;;;;17.55;2.47;;;;;;;;;;4997012;28;96637;-72
2023/04/11 08:11:29;;;;;;;14.40;1.88;;;;;;;;;;4993147;28;93413;-72
2023/04/11 08:13:55;;;;;;;15.73;2.47;;;;;;;;;;4999550;28;92615;-72
2023/04/11 08:16:22;;;;;;;13.73;2.30;;;;;;;;;;5001638;28;93406;-72
2023/04/11 08:18:48;;;;;;;13.35;1.98;;;;;;;;;;5000200;28;93726;-73
2023/04/11 08:21:15;;;;;;;13.88;2.13;;;;;;;;;;4995766;28;92468;-72
2023/04/11 08:23:41;;;;;;;12.00;1.75;;;;;;;;;;5005788;28;92007;-72
2023/04/11 08:26:08;;;;;;;11.48;2.30;;;;;;;;;;4996588;28;93686;-72
2023/04/11 08:28:35;;;;;;;13.18;1.75;;;;;;;;;;5005602;28;92514;-73
2023/04/11 08:31:02;;;;;;;11.35;2.17;;;;;;;;;;4994155;28;99180;-73
2023/04/11 08:33:29;;;;;;;9.02;1.50;;;;;;;;;;5015703;28;92446;-73
2023/04/11 08:35:55;;;;;;;9.73;1.70;;;;;;;;;;5016784;28;93239;-72
2023/04/11 08:38:22;;;;;;;16.33;2.47;;;;;;;;;;5009740;28;93545;-72
2023/04/11 08:40:48;;;;;;;14.65;2.63;;;;;;;;;;4997226;28;92447;-71
2023/04/11 08:43:14;;;;;;;14.40;2.55;;;;;;;;;;4996789;28;94221;-72
2023/04/11 08:45:41;;;;;;;10.50;1.95;;;;;;;;;;4996158;28;94839;-72
2023/04/11 08:48:08;;;;;;;16.48;2.42;;;;;;;;;;5006894;28;91803;-71
2023/04/11 08:50:34;;;;;;;14.75;2.65;;;;;;;;;;5017849;28;92782;-72
2023/04/11 08:53:02;;;;;;;8.13;1.60;;;;;;;;;;5017093;28;92460;-72
2023/04/11 08:55:28;;;;;;;25.13;2.17;;;;;;;;;;5015881;28;94810;-72
2023/04/11 08:57:58;;;;;;;12.88;2.05;;;;;;;;;;5008007;28;95573;-71
2023/04/11 09:00:25;;;;;;;7.47;1.73;;;;;;;;;;4997000;28;92737;-71
2023/04/11 09:03:02;;;;;;;7.47;1.95;;;;;;;;;;5017829;28;93268;-68
2023/04/11 09:05:29;;;;;;;7.47;1.92;;;;;;;;;;5018533;28;93238;-68
2023/04/11 09:07:57;;;;;;;14.55;2.35;;;;;;;;;;5023577;28;92417;-70
2023/04/11 09:10:24;;;;;;;6.13;1.17;;;;;;;;;;5019677;28;92272;-70
2023/04/11 09:12:51;;;;;;;6.60;1.75;;;;;;;;;;5027668;28;91474;-68
2023/04/11 09:15:21;;;;;;;7.75;1.15;;;;;;;;;;5030441;28;92178;-69
2023/04/11 09:17:48;;;;;;;6.10;1.60;;;;;;;;;;5023549;28;92196;-73
2023/04/11 09:20:16;;;;;;;10.25;1.35;;;;;;;;;;5024645;28;95262;-73
2023/04/11 09:22:43;;;;;;;6.93;1.60;;;;;;;;;;5022100;28;94327;-73
2023/04/11 09:25:09;;;;;;;9.85;1.40;;;;;;;;;;5030664;28;92919;-72
2023/04/11 09:27:35;;;;;;;5.32;1.38;;;;;;;;;;5036042;28;91909;-72
2023/04/11 09:30:02;;;;;;;8.60;1.60;;;;;;;;;;5000551;28;92196;-74
2023/04/11 09:32:28;;;;;;;5.20;1.25;;;;;;;;;;4999941;28;92376;-74
2023/04/11 09:35:08;;;;;;;15.73;1.73;;;;;;;;;;5030684;28;92486;-74
2023/04/11 09:37:42;;;;;;;6.57;0.90;;;;;;;;;;5031892;28;91591;-74
2023/04/11 09:40:08;;;;;;;6.07;1.30;;;;;;;;;;5039821;28;92446;-73
2023/04/11 09:42:35;;;;;;;6.70;1.65;;;;;;;;;;5035961;28;92255;-73
2023/04/11 09:45:02;;;;;;;4.20;1.50;;;;;;;;;;5022375;28;94721;-73
2023/04/11 09:47:31;;;;;;;16.13;2.40;;;;;;;;;;5025958;28;94163;-73
2023/04/11 09:49:58;;;;;;;5.53;1.03;;;;;;;;;;5012753;28;92540;-73
2023/04/11 09:52:30;;;;;;;5.20;1.33;;;;;;;;;;5013667;28;92016;-73
2023/04/11 09:54:57;;;;;;;3.80;1.50;;;;;;;;;;5021094;28;92253;-73
2023/04/11 09:57:23;;;;;;;7.20;1.92;;;;;;;;;;5008013;28;93816;-74
2023/04/11 09:59:51;;;;;;;8.00;2.13;;;;;;;;;;4997331;28;92388;-73
2023/04/11 10:02:17;;;;;;;5.88;1.45;;;;;;;;;;5002447;28;94240;-73
2023/04/11 10:04:44;;;;;;;4.22;1.38;;;;;;;;;;5012370;28;93101;-72
2023/04/11 10:07:15;;;;;;;4.22;1.48;;;;;;;;;;5013030;28;93867;-72
2023/04/11 10:09:44;;;;;;;6.38;1.50;;;;;;;;;;5013642;28;95224;-73
2023/04/11 10:12:10;;;;;;;9.77;1.60;;;;;;;;;;5000438;28;93472;-74
2023/04/11 10:14:37;;;;;;;10.65;2.13;;;;;;;;;;4990541;28;92459;-73
2023/04/11 10:17:09;;;;;;;7.53;1.48;;;;;;;;;;4998858;28;92988;-72
2023/04/11 10:19:36;;;;;;;5.95;1.55;;;;;;;;;;4993135;28;92984;-73
2023/04/11 10:22:02;;;;;;;12.57;2.08;;;;;;;;;;4994293;28;93299;-72
2023/04/11 10:24:28;;;;;;;5.18;1.15;;;;;;;;;;4994871;28;93310;-71
2023/04/11 10:27:04;;;;;;;13.43;2.10;;;;;;;;;;4999886;28;91900;-70
2023/04/11 10:29:33;;;;;;;7.72;1.60;;;;;;;;;;4994658;28;93488;-71
2023/04/11 10:32:09;;;;;;;4.60;1.20;;;;;;;;;;4999913;28;94483;-72
2023/04/11 10:34:37;;;;;;;8.70;1.75;;;;;;;;;;4992079;28;95447;-72
2023/04/11 10:37:07;;;;;;;7.72;1.50;;;;;;;;;;5006550;28;95523;-72
2023/04/11 10:39:49;;;;;;;9.23;1.83;;;;;;;;;;5017658;28;93439;-72
2023/04/11 10:42:24;;;;;;;9.57;1.90;;;;;;;;;;5013095;28;93127;-74
2023/04/11 10:45:09;;;;;;;10.68;2.13;;;;;;;;;;4974153;28;93167;-72
2023/04/11 10:47:35;;;;;;;6.45;1.50;;;;;;;;;;4986440;28;92517;-72
2023/04/11 10:50:02;;;;;;;6.15;1.63;;;;;;;;;;4994860;28;93383;-74
2023/04/11 10:52:36;;;;;;;6.60;1.55;;;;;;;;;;5005641;28;92686;-73
2023/04/11 10:55:13;;;;;;;6.40;1.92;;;;;;;;;;4996247;28;92873;-73
2023/04/11 10:57:59;;;;;;;20.13;2.20;;;;;;;;;;4992969;28;93015;-73
2023/04/11 11:00:26;;;;;;;6.60;1.60;;;;;;;;;;4987798;28;100318;-74
2023/04/11 11:02:53;;;;;;;8.18;1.20;;;;;;;;;;4997911;28;92499;-73
2023/04/11 11:05:20;;;;;;;14.02;1.67;;;;;;;;;;4991883;28;93431;-75
2023/04/11 11:07:47;;;;;;;6.43;1.40;;;;;;;;;;4997463;28;93994;-73
2023/04/11 11:10:14;;;;;;;14.35;1.92;;;;;;;;;;5012885;28;93157;-72
2023/04/11 11:12:56;;;;;;;5.65;1.75;;;;;;;;;;4996836;28;93624;-73
2023/04/11 11:15:22;;;;;;;6.43;1.63;;;;;;;;;;4992643;28;92495;-73
2023/04/11 11:17:48;;;;;;;7.82;1.83;;;;;;;;;;5004307;28;93230;-73
2023/04/11 11:20:15;;;;;;;8.10;1.85;;;;;;;;;;5010336;28;93509;-73
2023/04/11 11:22:42;;;;;;;8.40;2.13;;;;;;;;;;4993950;28;93844;-73
2023/04/11 11:25:08;;;;;;;9.85;1.40;;;;;;;;;;4993709;28;94878;-74
2023/04/11 11:27:34;;;;;;;13.20;2.00;;;;;;;;;;4991285;28;92588;-73
2023/04/11 11:30:10;;;;;;;8.80;1.65;;;;;;;;;;4991449;28;92910;-73
2023/04/11 11:32:36;;;;;;;11.25;1.88;;;;;;;;;;4998580;28;93563;-73
2023/04/11 11:35:12;;;;;;;7.65;1.42;;;;;;;;;;5009583;28;92813;-73
2023/04/11 11:37:38;;;;;;;10.85;1.88;;;;;;;;;;5012548;28;93066;-73
2023/04/11 11:40:11;;;;;;;6.22;1.65;;;;;;;;;;5009061;28;93476;-71
2023/04/11 11:42:38;;;;;;;8.43;2.10;;;;;;;;;;4994569;28;91656;-73
2023/04/11 11:45:15;;;;;;;6.40;1.67;;;;;;;;;;4998165;28;92669;-73
2023/04/11 11:47:42;;;;;;;6.93;1.58;;;;;;;;;;4996681;28;94654;-72
2023/04/11 11:50:08;;;;;;;7.00;2.13;;;;;;;;;;5001437;28;95379;-73
2023/04/11 11:52:39;;;;;;;6.88;2.10;;;;;;;;;;4993546;28;94662;-73
2023/04/11 11:55:08;;;;;;;6.40;1.77;;;;;;;;;;5000017;28;92809;-73
2023/04/11 11:57:36;;;;;;;12.50;1.88;;;;;;;;;;5005977;28;92863;-73
2023/04/11 12:00:09;;;;;;;11.00;2.00;;;;;;;;;;5015487;28;93455;-73
2023/04/11 12:02:35;;;;;;;7.30;2.05;;;;;;;;;;5017170;28;92502;-73
2023/04/11 12:05:03;;;;;;;8.38;1.85;;;;;;;;;;5005623;28;93951;-72
2023/04/11 12:07:33;;;;;;;12.43;2.30;;;;;;;;;;4998702;28;93626;-72
2023/04/11 12:10:00;;;;;;;5.87;1.60;;;;;;;;;;5003122;28;92625;-72
2023/04/11 12:12:37;;;;;;;4.70;1.35;;;;;;;;;;4996577;28;93444;-72
2023/04/11 12:15:09;;;;;;;9.40;1.98;;;;;;;;;;4995837;28;94914;-72
2023/04/11 12:17:35;;;;;;;12.52;2.45;;;;;;;;;;5008833;28;95556;-72
2023/04/11 12:20:06;;;;;;;6.72;2.28;;;;;;;;;;5013036;28;93519;-72
2023/04/11 12:22:33;;;;;;;7.53;1.55;;;;;;;;;;5001583;28;92535;-72
2023/04/11 12:25:13;;;;;;;9.70;2.03;;;;;;;;;;4994982;28;94170;-72
2023/04/11 12:27:43;;;;;;;8.40;1.60;;;;;;;;;;5007919;28;93814;-72
2023/04/11 12:30:10;;;;;;;8.50;2.20;;;;;;;;;;4979999;28;92479;-72
2023/04/11 12:32:36;;;;;;;9.73;2.08;;;;;;;;;;5003026;28;92807;-72
2023/04/11 12:35:04;;;;;;;10.48;2.10;;;;;;;;;;5012406;28;92773;-72
2023/04/11 12:37:31;;;;;;;8.10;1.67;;;;;;;;;;5010595;28;94464;-72
2023/04/11 12:39:57;;;;;;;6.22;1.88;;;;;;;;;;5010989;28;96067;-72
2023/04/11 12:42:24;;;;;;;6.45;1.90;;;;;;;;;;5005456;28;92496;-70
2023/04/11 12:44:52;;;;;;;6.30;1.45;;;;;;;;;;4999740;28;93419;-73
2023/04/11 12:47:19;;;;;;;13.20;2.35;;;;;;;;;;4997306;28;94897;-70
2023/04/11 12:49:45;;;;;;;10.52;2.10;;;;;;;;;;4995439;28;92429;-71
2023/04/11 12:52:11;;;;;;;5.22;1.35;;;;;;;;;;4995930;28;93190;-68
2023/04/11 12:54:38;;;;;;;7.25;1.70;;;;;;;;;;5007820;28;92848;-69
2023/04/11 12:57:06;;;;;;;6.22;1.65;;;;;;;;;;5005601;28;93267;-70
2023/04/11 12:59:32;;;;;;;9.75;2.10;;;;;;;;;;4997932;28;92744;-69
2023/04/11 13:01:59;;;;;;;4.95;1.58;;;;;;;;;;4998114;28;92432;-72
2023/04/11 13:04:26;;;;;;;6.25;1.88;;;;;;;;;;5014827;28;94739;-69
2023/04/11 13:06:52;;;;;;;9.38;1.73;;;;;;;;;;5014663;28;93437;-69
2023/04/11 13:09:18;;;;;;;5.78;1.40;;;;;;;;;;5013053;28;92481;-69
2023/04/11 13:11:45;;;;;;;9.30;1.63;;;;;;;;;;5015012;28;93132;-69
2023/04/11 13:14:11;;;;;;;6.95;1.70;;;;;;;;;;5018919;28;93082;-70
2023/04/11 13:16:37;;;;;;;9.00;1.75;;;;;;;;;;5009104;28;94146;-70
2023/04/11 13:19:04;;;;;;;6.15;1.35;;;;;;;;;;4994643;28;93421;-71
2023/04/11 13:21:31;;;;;;;11.25;2.30;;;;;;;;;;4995461;28;91791;-71
2023/04/11 13:23:57;;;;;;;10.38;2.00;;;;;;;;;;5007451;28;92469;-71
2023/04/11 13:26:24;;;;;;;12.15;1.60;;;;;;;;;;4995044;28;92396;-71
2023/04/11 13:28:50;;;;;;;8.13;1.65;;;;;;;;;;4989151;28;96729;-71
2023/04/11 13:31:18;;;;;;;9.63;1.85;;;;;;;;;;4994818;28;95342;-71
2023/04/11 13:33:46;;;;;;;8.15;2.05;;;;;;;;;;5015587;28;93732;-70
2023/04/11 13:36:13;;;;;;;5.03;1.98;;;;;;;;;;5019099;28;92406;-71
2023/04/11 13:38:39;;;;;;;10.13;1.52;;;;;;;;;;5002123;28;93299;-71
2023/04/11 13:41:05;;;;;;;8.50;1.80;;;;;;;;;;4995336;28;93102;-71
2023/04/11 13:43:31;;;;;;;9.43;1.77;;;;;;;;;;5013811;28;93147;-71
2023/04/11 13:45:58;;;;;;;9.90;1.77;;;;;;;;;;5014768;28;92546;-71
2023/04/11 13:48:24;;;;;;;7.70;1.40;;;;;;;;;;5008937;28;92497;-71
2023/04/11 13:50:50;;;;;;;5.15;1.50;;;;;;;;;;4996496;28;93205;-71
2023/04/11 13:53:17;;;;;;;7.22;1.52;;;;;;;;;;5006642;28;95881;-71
2023/04/11 13:55:46;;;;;;;8.57;1.85;;;;;;;;;;4995691;28;92497;-71
2023/04/11 13:58:12;;;;;;;6.63;1.88;;;;;;;;;;4996549;28;92611;-71
2023/04/11 14:00:39;;;;;;;9.73;1.95;;;;;;;;;;5007078;28;92504;-71
2023/04/11 14:03:06;;;;;;;9.10;1.63;;;;;;;;;;5012997;28;93109;-70
2023/04/11 14:05:34;;;;;;;7.38;1.55;;;;;;;;;;5014137;28;93464;-71
2023/04/11 14:08:00;;;;;;;4.45;1.23;;;;;;;;;;5010276;28;92446;-71
2023/04/11 14:10:27;;;;;;;12.60;2.20;;;;;;;;;;4990581;28;93325;-71
2023/04/11 14:12:53;;;;;;;7.97;1.67;;;;;;;;;;4986861;28;94088;-71
2023/04/11 14:15:20;;;;;;;6.82;1.23;;;;;;;;;;4994839;28;92647;-71
2023/04/11 14:17:47;;;;;;;10.05;1.80;;;;;;;;;;4995101;28;95474;-71
2023/04/11 14:20:13;;;;;;;7.82;1.63;;;;;;;;;;4994160;28;92683;-71
2023/04/11 14:22:41;;;;;;;6.22;1.52;;;;;;;;;;4993448;28;92473;-71
2023/04/11 14:25:09;;;;;;;5.47;1.75;;;;;;;;;;4993506;28;93470;-71
2023/04/11 14:27:36;;;;;;;9.88;1.90;;;;;;;;;;4994338;28;92777;-71
2023/04/11 14:30:03;;;;;;;6.38;1.60;;;;;;;;;;4994856;28;93157;-71
2023/04/11 14:32:29;;;;;;;6.45;1.60;;;;;;;;;;4995375;28;94036;-71
2023/04/11 14:34:55;;;;;;;6.95;2.00;;;;;;;;;;5005217;28;91726;-71